createdAt,value
2019-03-18T00:00:29.919Z,5.20
2019-03-18T00:03:00.409Z,5.10
2019-03-18T00:05:33.785Z,5.10
2019-03-18T00:08:07.543Z,5.20
2019-03-18T00:10:38.176Z,5.20
2019-03-18T00:13:08.535Z,4.90
2019-03-18T00:15:40.314Z,5.20
2019-03-18T00:18:11.054Z,5.20
2019-03-18T00:20:42.793Z,4.90
2019-03-18T00:23:14.640Z,5.20
2019-03-18T00:25:45.509Z,5.20
2019-03-18T00:28:16.000Z,5.20
2019-03-18T00:30:49.537Z,5.20
2019-03-18T00:33:21.666Z,5.20
2019-03-18T00:35:52.034Z,5.20
2019-03-18T00:38:23.810Z,5.20
2019-03-18T00:40:54.234Z,5.10
2019-03-18T00:43:25.261Z,4.80
2019-03-18T00:45:58.580Z,4.90
2019-03-18T00:48:31.418Z,5.10
2019-03-18T00:51:02.070Z,4.60
2019-03-18T00:53:32.556Z,5.20
2019-03-18T00:56:02.930Z,5.00
2019-03-18T00:58:35.248Z,5.10
2019-03-18T01:01:05.596Z,4.70
2019-03-18T01:03:37.282Z,4.90
2019-03-18T01:06:08.012Z,4.90
2019-03-18T01:08:41.214Z,4.60
2019-03-18T01:11:12.538Z,4.90
2019-03-18T01:13:45.264Z,4.90
2019-03-18T01:16:18.848Z,5.00
2019-03-18T01:18:51.835Z,5.00
2019-03-18T01:21:23.757Z,5.00
2019-03-18T01:23:57.651Z,4.70
2019-03-18T01:26:28.013Z,4.80
2019-03-18T01:28:58.761Z,4.60
2019-03-18T01:31:30.608Z,4.80
2019-03-18T01:34:00.991Z,4.60
2019-03-18T01:36:33.919Z,5.00
2019-03-18T01:39:05.304Z,4.90
2019-03-18T01:41:35.676Z,4.60
2019-03-18T01:44:06.061Z,4.70
2019-03-18T01:46:38.904Z,4.80
2019-03-18T01:49:10.824Z,5.00
2019-03-18T01:51:41.173Z,4.90
2019-03-18T01:54:13.019Z,4.90
2019-03-18T01:56:45.595Z,4.70
2019-03-18T01:59:16.056Z,4.70
2019-03-18T02:01:46.817Z,4.70
2019-03-18T02:04:17.540Z,4.60
2019-03-18T02:06:50.133Z,4.60
2019-03-18T02:09:24.133Z,4.50
2019-03-18T02:11:54.490Z,4.60
2019-03-18T02:14:26.530Z,4.80
2019-03-18T02:16:57.203Z,4.60
2019-03-18T02:19:28.793Z,4.60
2019-03-18T02:21:59.489Z,4.90
2019-03-18T02:24:29.950Z,4.50
2019-03-18T02:27:00.716Z,4.30
2019-03-18T02:29:32.949Z,4.70
2019-03-18T02:32:03.323Z,4.70
2019-03-18T02:34:33.806Z,4.50
2019-03-18T02:37:05.416Z,4.90
2019-03-18T02:39:35.781Z,4.90
2019-03-18T02:42:06.055Z,4.70
2019-03-18T02:44:37.086Z,4.50
2019-03-18T02:47:09.247Z,4.60
2019-03-18T02:49:41.012Z,4.70
2019-03-18T02:52:14.178Z,4.90
2019-03-18T02:54:44.477Z,4.60
2019-03-18T02:57:18.060Z,4.30
2019-03-18T02:59:48.881Z,4.60
2019-03-18T03:02:20.985Z,4.60
2019-03-18T03:04:51.318Z,4.60
2019-03-18T03:07:21.712Z,4.30
2019-03-18T03:09:52.464Z,4.40
2019-03-18T03:12:22.903Z,4.30
2019-03-18T03:14:54.597Z,4.40
2019-03-18T03:17:25.396Z,4.30
2019-03-18T03:19:57.578Z,4.30
2019-03-18T03:22:30.030Z,4.20
2019-03-18T03:25:01.765Z,4.30
2019-03-18T03:27:32.521Z,4.30
2019-03-18T03:30:05.834Z,4.50
2019-03-18T03:32:36.372Z,4.30
2019-03-18T03:35:07.374Z,4.40
2019-03-18T03:37:37.750Z,4.40
2019-03-18T03:40:08.626Z,4.30
2019-03-18T03:42:39.940Z,4.50
2019-03-18T03:45:10.492Z,4.50
2019-03-18T03:47:42.275Z,4.60
2019-03-18T03:50:13.959Z,4.30
2019-03-18T03:52:45.408Z,4.70
2019-03-18T03:55:17.625Z,4.30
2019-03-18T03:57:49.187Z,4.30
2019-03-18T04:00:19.939Z,4.30
2019-03-18T04:02:50.961Z,4.30
2019-03-18T04:05:21.694Z,4.30
2019-03-18T04:07:53.692Z,4.30
2019-03-18T04:10:24.052Z,4.40
2019-03-18T04:12:56.020Z,4.40
2019-03-18T04:15:26.853Z,4.60
2019-03-18T04:17:57.179Z,4.20
2019-03-18T04:20:28.868Z,4.20
2019-03-18T04:22:59.231Z,4.60
2019-03-18T04:25:29.952Z,4.70
2019-03-18T04:28:00.698Z,4.60
2019-03-18T04:30:31.411Z,4.20
2019-03-18T04:33:03.220Z,4.40
2019-03-18T04:35:37.291Z,4.40
2019-03-18T04:38:09.320Z,4.50
2019-03-18T04:40:40.701Z,4.50
2019-03-18T04:43:11.053Z,4.60
2019-03-18T04:45:42.199Z,4.30
2019-03-18T04:48:12.689Z,4.30
2019-03-18T04:50:45.178Z,4.40
2019-03-18T04:53:16.707Z,4.20
2019-03-18T04:55:47.079Z,4.40
2019-03-18T04:58:17.793Z,4.30
2019-03-18T05:00:48.151Z,4.30
2019-03-18T05:03:19.603Z,4.50
2019-03-18T05:05:50.268Z,4.30
2019-03-18T05:08:22.204Z,4.50
2019-03-18T05:10:53.250Z,4.60
2019-03-18T05:13:26.331Z,4.50
2019-03-18T05:15:55.994Z,4.30
2019-03-18T05:18:30.566Z,4.50
2019-03-18T05:21:00.979Z,4.50
2019-03-18T05:23:32.087Z,4.30
2019-03-18T05:26:04.558Z,4.30
2019-03-18T05:28:34.572Z,4.60
2019-03-18T05:31:05.313Z,4.50
2019-03-18T05:33:35.607Z,4.40
2019-03-18T05:36:05.959Z,4.30
2019-03-18T05:38:37.788Z,4.60
2019-03-18T05:41:08.245Z,4.40
2019-03-18T05:43:38.883Z,4.30
2019-03-18T05:46:10.691Z,4.50
2019-03-18T05:48:41.138Z,4.90
2019-03-18T05:51:12.942Z,4.70
2019-03-18T05:53:43.672Z,4.50
2019-03-18T05:56:14.387Z,4.40
2019-03-18T05:58:44.821Z,4.60
2019-03-18T06:01:15.988Z,4.80
2019-03-18T06:03:48.175Z,4.70
2019-03-18T06:06:23.714Z,4.50
2019-03-18T06:08:54.747Z,4.70
2019-03-18T06:11:25.476Z,4.90
2019-03-18T06:13:57.358Z,4.90
2019-03-18T06:16:28.198Z,4.90
2019-03-18T06:19:00.282Z,4.90
2019-03-18T06:21:31.167Z,4.90
2019-03-18T06:24:01.828Z,4.70
2019-03-18T06:26:32.649Z,4.80
2019-03-18T06:29:04.613Z,4.90
2019-03-18T06:31:37.130Z,5.20
2019-03-18T06:34:07.516Z,4.60
2019-03-18T06:36:37.914Z,4.90
2019-03-18T06:39:10.114Z,5.10
2019-03-18T06:41:41.975Z,4.80
2019-03-18T06:44:12.310Z,4.70
2019-03-18T06:46:43.199Z,5.00
2019-03-18T06:49:13.575Z,5.20
2019-03-18T06:51:44.394Z,4.90
2019-03-18T06:54:14.795Z,5.20
2019-03-18T06:56:45.175Z,5.20
2019-03-18T06:59:15.990Z,5.50
2019-03-18T07:01:46.316Z,5.90
2019-03-18T07:04:18.881Z,6.20
2019-03-18T07:06:49.605Z,6.40
2019-03-18T07:09:21.687Z,6.30
2019-03-18T07:11:52.356Z,6.30
2019-03-18T07:14:23.705Z,6.30
2019-03-18T07:16:54.540Z,6.10
2019-03-18T07:19:25.563Z,6.20
2019-03-18T07:21:56.426Z,6.40
2019-03-18T07:24:28.536Z,6.40
2019-03-18T07:27:01.030Z,6.40
2019-03-18T07:29:32.828Z,6.30
2019-03-18T07:32:04.655Z,6.00
2019-03-18T07:34:35.110Z,6.00
2019-03-18T07:37:05.593Z,5.70
2019-03-18T07:39:36.356Z,6.00
2019-03-18T07:42:06.666Z,5.70
2019-03-18T07:44:38.486Z,5.80
2019-03-18T07:47:09.164Z,5.50
2019-03-18T07:49:40.558Z,5.50
2019-03-18T07:52:11.601Z,5.40
2019-03-18T07:54:42.383Z,5.30
2019-03-18T07:57:14.346Z,5.50
2019-03-18T07:59:44.773Z,5.50
2019-03-18T08:02:15.224Z,5.70
2019-03-18T08:04:46.065Z,6.10
2019-03-18T08:07:16.747Z,6.70
2019-03-18T08:09:47.712Z,7.60
2019-03-18T08:12:21.076Z,7.60
2019-03-18T08:14:51.647Z,7.40
2019-03-18T08:17:22.688Z,7.30
2019-03-18T08:19:55.280Z,6.70
2019-03-18T08:22:26.004Z,7.00
2019-03-18T08:24:56.736Z,6.90
2019-03-18T08:27:27.189Z,7.20
2019-03-18T08:29:57.613Z,7.30
2019-03-18T08:32:28.266Z,7.30
2019-03-18T08:34:59.151Z,7.30
2019-03-18T08:37:29.791Z,7.50
2019-03-18T08:40:01.139Z,7.30
2019-03-18T08:42:32.629Z,7.80
2019-03-18T08:45:03.143Z,8.10
2019-03-18T08:47:34.173Z,8.40
2019-03-18T08:50:05.272Z,8.90
2019-03-18T08:52:37.178Z,8.80
2019-03-18T08:55:07.682Z,8.70
2019-03-18T08:57:38.237Z,9.70
2019-03-18T09:00:10.447Z,10.30
2019-03-18T09:02:41.138Z,11.00
2019-03-18T09:05:11.982Z,10.80
2019-03-18T09:07:42.438Z,11.00
2019-03-18T09:10:13.033Z,10.50
2019-03-18T09:12:44.474Z,10.50
2019-03-18T09:15:14.942Z,10.80
2019-03-18T09:17:46.394Z,10.90
2019-03-18T09:20:16.804Z,11.00
2019-03-18T09:22:47.637Z,10.80
2019-03-18T09:25:18.386Z,10.10
2019-03-18T09:27:48.871Z,10.00
2019-03-18T09:30:21.059Z,9.50
2019-03-18T09:32:51.628Z,9.00
2019-03-18T09:35:22.095Z,8.70
2019-03-18T09:37:53.708Z,8.30
2019-03-18T09:40:24.506Z,7.90
2019-03-18T09:42:57.774Z,7.60
2019-03-18T09:45:28.136Z,7.50
2019-03-18T09:48:00.193Z,7.20
2019-03-18T09:50:30.474Z,7.00
2019-03-18T09:53:01.160Z,7.00
2019-03-18T09:55:34.872Z,6.70
2019-03-18T09:58:05.273Z,6.90
2019-03-18T10:00:36.803Z,6.70
2019-03-18T10:03:07.280Z,7.30
2019-03-18T10:05:37.679Z,9.10
2019-03-18T10:08:08.340Z,10.50
2019-03-18T10:10:40.237Z,10.30
2019-03-18T10:13:11.335Z,9.80
2019-03-18T10:15:42.109Z,9.10
2019-03-18T10:18:12.419Z,8.60
2019-03-18T10:20:42.912Z,8.40
2019-03-18T10:23:15.016Z,8.20
2019-03-18T10:25:45.748Z,7.90
2019-03-18T10:28:17.396Z,8.00
2019-03-18T10:30:50.775Z,7.80
2019-03-18T10:33:21.411Z,8.00
2019-03-18T10:35:54.005Z,7.40
2019-03-18T10:38:23.751Z,7.60
2019-03-18T10:40:54.101Z,7.30
2019-03-18T10:43:24.758Z,7.00
2019-03-18T10:45:56.828Z,7.40
2019-03-18T10:48:27.561Z,7.50
2019-03-18T10:50:58.609Z,7.50
2019-03-18T10:53:29.358Z,7.30
2019-03-18T10:56:07.823Z,7.30
2019-03-18T10:58:39.327Z,7.40
2019-03-18T11:01:11.652Z,7.00
2019-03-18T11:03:42.553Z,7.40
2019-03-18T11:06:12.923Z,7.40
2019-03-18T11:08:43.272Z,8.00
2019-03-18T11:11:14.311Z,8.60
2019-03-18T11:13:45.058Z,8.70
2019-03-18T11:16:15.463Z,8.90
2019-03-18T11:18:45.840Z,8.70
2019-03-18T11:21:16.651Z,8.90
2019-03-18T11:23:47.138Z,8.70
2019-03-18T11:26:19.650Z,8.50
2019-03-18T11:28:49.973Z,8.50
2019-03-18T11:31:20.772Z,8.30
2019-03-18T11:33:51.458Z,7.90
2019-03-18T11:36:23.808Z,7.70
2019-03-18T11:38:57.562Z,7.80
2019-03-18T11:41:28.190Z,7.60
2019-03-18T11:43:59.720Z,7.40
2019-03-18T11:46:30.436Z,7.40
2019-03-18T11:49:02.403Z,7.20
2019-03-18T11:51:34.496Z,7.10
2019-03-18T11:54:05.532Z,7.00
2019-03-18T11:56:36.052Z,7.00
2019-03-18T11:59:06.567Z,7.10
2019-03-18T12:01:37.302Z,6.90
2019-03-18T12:04:08.143Z,7.00
2019-03-18T12:06:41.115Z,6.90
2019-03-18T12:09:11.548Z,6.70
2019-03-18T12:11:42.381Z,6.70
2019-03-18T12:14:14.279Z,7.00
2019-03-18T12:16:44.688Z,7.40
2019-03-18T12:19:15.306Z,7.40
2019-03-18T12:21:46.017Z,7.50
2019-03-18T12:24:19.246Z,7.60
2019-03-18T12:26:49.891Z,7.90
2019-03-18T12:29:20.735Z,8.00
2019-03-18T12:31:53.780Z,8.10
2019-03-18T12:34:24.897Z,8.30
2019-03-18T12:36:55.239Z,8.60
2019-03-18T12:39:25.942Z,8.60
2019-03-18T12:41:56.948Z,8.10
2019-03-18T12:44:29.065Z,8.90
2019-03-18T12:47:00.726Z,9.00
2019-03-18T12:49:32.342Z,10.10
2019-03-18T12:52:02.831Z,11.40
2019-03-18T12:54:33.173Z,12.30
2019-03-18T12:57:03.530Z,12.20
2019-03-18T12:59:35.087Z,12.40
2019-03-18T13:02:06.633Z,11.90
2019-03-18T13:04:37.246Z,11.90
2019-03-18T13:07:09.065Z,11.90
2019-03-18T13:09:39.846Z,11.20
2019-03-18T13:12:13.344Z,10.10
2019-03-18T13:14:44.394Z,9.60
2019-03-18T13:17:15.219Z,9.20
2019-03-18T13:19:45.616Z,9.70
2019-03-18T13:22:16.022Z,10.20
2019-03-18T13:24:46.428Z,10.40
2019-03-18T13:27:17.442Z,10.70
2019-03-18T13:29:48.025Z,10.90
2019-03-18T13:32:18.818Z,11.20
2019-03-18T13:34:50.448Z,11.20
2019-03-18T13:37:22.123Z,11.50
2019-03-18T13:39:53.245Z,11.20
2019-03-18T13:42:24.916Z,10.80
2019-03-18T13:44:59.089Z,10.70
2019-03-18T13:47:32.666Z,11.20
2019-03-18T13:50:03.496Z,11.30
2019-03-18T13:52:33.871Z,11.40
2019-03-18T13:55:04.963Z,11.70
2019-03-18T13:57:35.580Z,11.10
2019-03-18T14:00:08.046Z,11.20
2019-03-18T14:02:38.907Z,11.20
2019-03-18T14:05:09.713Z,10.90
2019-03-18T14:07:40.474Z,10.30
2019-03-18T14:10:12.462Z,10.30
2019-03-18T14:12:44.370Z,9.60
2019-03-18T14:15:15.810Z,9.50
2019-03-18T14:17:46.511Z,9.50
2019-03-18T14:20:18.495Z,8.80
2019-03-18T14:22:50.868Z,8.70
2019-03-18T14:25:21.554Z,8.30
2019-03-18T14:27:54.066Z,7.90
2019-03-18T14:30:25.871Z,8.10
2019-03-18T14:32:56.237Z,8.10
2019-03-18T14:35:28.084Z,7.80
2019-03-18T14:38:01.879Z,8.10
2019-03-18T14:40:32.542Z,8.10
2019-03-18T14:43:02.915Z,8.30
2019-03-18T14:45:33.340Z,8.20
2019-03-18T14:48:04.315Z,8.20
2019-03-18T14:50:35.720Z,8.40
2019-03-18T14:53:06.412Z,8.80
2019-03-18T14:55:38.222Z,8.90
2019-03-18T14:58:08.662Z,9.40
2019-03-18T15:00:39.302Z,9.40
2019-03-18T15:03:11.873Z,9.70
2019-03-18T15:05:42.160Z,9.70
2019-03-18T15:08:12.967Z,9.70
2019-03-18T15:10:43.316Z,9.60
2019-03-18T15:13:14.029Z,9.40
2019-03-18T15:15:44.347Z,9.70
2019-03-18T15:18:15.034Z,9.70
2019-03-18T15:20:45.814Z,9.60
2019-03-18T15:23:16.606Z,9.70
2019-03-18T15:25:46.895Z,9.50
2019-03-18T15:28:17.972Z,9.40
2019-03-18T15:30:51.824Z,9.30
2019-03-18T15:33:23.637Z,9.30
2019-03-18T15:35:55.753Z,9.40
2019-03-18T15:38:26.523Z,9.30
2019-03-18T15:40:57.664Z,9.40
2019-03-18T15:43:28.771Z,9.40
2019-03-18T15:45:59.441Z,9.40
2019-03-18T15:48:31.163Z,9.00
2019-03-18T15:51:03.295Z,9.00
2019-03-18T15:53:33.702Z,9.00
2019-03-18T15:56:04.096Z,9.00
2019-03-18T15:58:35.129Z,8.80
2019-03-18T16:01:05.681Z,8.50
2019-03-18T16:03:38.545Z,8.80
2019-03-18T16:06:10.302Z,8.70
2019-03-18T16:08:41.037Z,8.50
2019-03-18T16:11:12.396Z,8.30
2019-03-18T16:13:43.234Z,8.10
2019-03-18T16:16:13.855Z,7.90
2019-03-18T16:18:44.220Z,7.70
2019-03-18T16:21:14.807Z,7.60
2019-03-18T16:23:45.556Z,7.40
2019-03-18T16:26:17.303Z,7.40
2019-03-18T16:28:48.481Z,7.60
2019-03-18T16:31:19.290Z,7.60
2019-03-18T16:33:49.774Z,7.40
2019-03-18T16:36:20.098Z,7.30
2019-03-18T16:38:50.481Z,7.30
2019-03-18T16:41:22.626Z,7.00
2019-03-18T16:43:53.862Z,7.00
2019-03-18T16:46:28.299Z,7.00
2019-03-18T16:48:59.899Z,6.70
2019-03-18T16:51:30.247Z,6.70
2019-03-18T16:54:00.710Z,7.00
2019-03-18T16:56:31.003Z,6.70
2019-03-18T16:59:01.565Z,6.80
2019-03-18T17:01:33.537Z,6.70
2019-03-18T17:04:03.885Z,6.40
2019-03-18T17:06:37.652Z,6.30
2019-03-18T17:09:08.018Z,6.30
2019-03-18T17:11:39.626Z,6.10
2019-03-18T17:14:10.238Z,6.30
2019-03-18T17:16:41.000Z,6.10
2019-03-18T17:19:11.692Z,6.00
2019-03-18T17:21:42.054Z,6.10
2019-03-18T17:24:13.829Z,6.30
2019-03-18T17:26:44.796Z,6.30
2019-03-18T17:29:16.832Z,6.10
2019-03-18T17:31:47.190Z,6.10
2019-03-18T17:34:17.531Z,6.10
2019-03-18T17:36:48.245Z,6.10
2019-03-18T17:39:19.107Z,5.80
2019-03-18T17:41:51.508Z,6.00
2019-03-18T17:44:22.600Z,5.80
2019-03-18T17:46:52.936Z,5.70
2019-03-18T17:49:23.397Z,5.80
2019-03-18T17:51:54.077Z,5.70
2019-03-18T17:54:24.775Z,5.90
2019-03-18T17:57:06.646Z,5.70
2019-03-18T17:59:28.608Z,5.70
2019-03-18T18:01:59.661Z,5.80
2019-03-18T18:04:30.141Z,5.80
2019-03-18T18:07:00.499Z,5.80
2019-03-18T18:09:31.134Z,5.50
2019-03-18T18:12:01.632Z,5.50
2019-03-18T18:14:32.421Z,5.50
2019-03-18T18:17:03.158Z,5.70
2019-03-18T18:19:33.625Z,5.80
2019-03-18T18:22:04.069Z,5.60
2019-03-18T18:24:34.854Z,5.70
2019-03-18T18:27:05.304Z,5.40
2019-03-18T18:29:35.710Z,5.50
2019-03-18T18:32:06.111Z,5.40
2019-03-18T18:34:37.936Z,5.50
2019-03-18T18:37:08.671Z,5.50
2019-03-18T18:39:39.395Z,5.40
2019-03-18T18:42:10.574Z,5.40
2019-03-18T18:44:41.049Z,5.30
2019-03-18T18:47:13.293Z,5.40
2019-03-18T18:49:43.700Z,5.40
2019-03-18T18:52:14.225Z,5.50
2019-03-18T18:54:44.984Z,5.20
2019-03-18T18:57:15.508Z,5.30
2019-03-18T18:59:47.653Z,5.20
2019-03-18T19:02:19.605Z,5.00
2019-03-18T19:04:51.121Z,5.10
2019-03-18T19:07:22.141Z,5.10
2019-03-18T19:09:52.928Z,5.20
2019-03-18T19:12:23.798Z,5.20
2019-03-18T19:14:56.273Z,5.20
2019-03-18T19:17:28.135Z,5.20
2019-03-18T19:19:58.907Z,5.40
2019-03-18T19:22:29.748Z,5.20
2019-03-18T19:25:00.384Z,5.20
2019-03-18T19:27:30.773Z,5.40
2019-03-18T19:30:01.536Z,5.50
2019-03-18T19:32:31.950Z,5.40
2019-03-18T19:35:02.705Z,5.50
2019-03-18T19:37:36.658Z,5.30
2019-03-18T19:40:08.771Z,5.50
2019-03-18T19:42:40.055Z,5.40
2019-03-18T19:45:12.012Z,5.00
2019-03-18T19:47:42.836Z,5.20
2019-03-18T19:50:15.305Z,5.10
2019-03-18T19:52:47.577Z,5.30
2019-03-18T19:55:17.970Z,5.20
2019-03-18T19:57:48.636Z,4.90
2019-03-18T20:00:22.252Z,5.10
2019-03-18T20:02:53.288Z,4.90
2019-03-18T20:05:24.374Z,4.60
2019-03-18T20:07:55.702Z,4.90
2019-03-18T20:10:28.236Z,4.90
2019-03-18T20:12:59.731Z,4.90
2019-03-18T20:15:30.471Z,4.70
2019-03-18T20:18:01.968Z,4.70
2019-03-18T20:20:32.827Z,4.60
2019-03-18T20:23:04.839Z,4.60
2019-03-18T20:25:35.908Z,4.70
2019-03-18T20:28:06.737Z,4.60
2019-03-18T20:30:37.972Z,4.60
2019-03-18T20:33:08.393Z,4.40
2019-03-18T20:35:39.059Z,4.10
2019-03-18T20:38:11.560Z,4.30
2019-03-18T20:40:42.577Z,4.10
2019-03-18T20:43:16.092Z,4.30
2019-03-18T20:45:47.421Z,4.20
2019-03-18T20:48:22.229Z,4.40
2019-03-18T20:50:53.087Z,4.20
2019-03-18T20:53:24.091Z,4.00
2019-03-18T20:55:55.693Z,4.30
2019-03-18T20:58:28.182Z,4.30
2019-03-18T21:00:58.726Z,4.20
2019-03-18T21:03:29.739Z,4.20
2019-03-18T21:06:01.525Z,4.30
2019-03-18T21:08:33.761Z,4.10
2019-03-18T21:11:04.538Z,4.00
2019-03-18T21:13:38.537Z,4.30
2019-03-18T21:16:09.217Z,4.30
2019-03-18T21:18:43.891Z,4.30
2019-03-18T21:21:13.526Z,4.20
2019-03-18T21:23:44.883Z,4.00
2019-03-18T21:26:15.859Z,4.20
2019-03-18T21:28:47.233Z,4.10
2019-03-18T21:31:18.210Z,3.70
2019-03-18T21:33:49.562Z,4.00
2019-03-18T21:36:33.052Z,4.10
2019-03-18T21:38:52.228Z,4.00
2019-03-18T21:41:22.583Z,3.70
2019-03-18T21:43:53.320Z,4.10
2019-03-18T21:46:26.341Z,4.10
2019-03-18T21:48:57.741Z,4.10
2019-03-18T21:51:28.334Z,3.70
2019-03-18T21:53:59.559Z,3.90
2019-03-18T21:56:30.346Z,3.90
2019-03-18T21:59:01.982Z,3.90
2019-03-18T22:01:34.775Z,3.80
2019-03-18T22:04:05.399Z,3.70
2019-03-18T22:06:35.921Z,3.80
2019-03-18T22:09:08.418Z,4.00
2019-03-18T22:11:39.376Z,3.80
2019-03-18T22:14:10.150Z,3.60
2019-03-18T22:16:40.916Z,4.00
2019-03-18T22:19:11.735Z,4.00
2019-03-18T22:21:42.851Z,4.10
2019-03-18T22:24:13.222Z,4.00
2019-03-18T22:26:43.740Z,4.00
2019-03-18T22:29:14.117Z,3.70
2019-03-18T22:31:44.944Z,3.80
2019-03-18T22:34:15.682Z,3.80
2019-03-18T22:36:47.827Z,3.80
2019-03-18T22:39:18.186Z,3.70
2019-03-18T22:41:48.557Z,3.70
2019-03-18T22:44:19.287Z,3.70
2019-03-18T22:46:51.186Z,3.80
2019-03-18T22:49:22.306Z,3.70
2019-03-18T22:51:53.815Z,3.60
2019-03-18T22:54:26.047Z,3.50
2019-03-18T22:56:56.498Z,3.50
2019-03-18T22:59:27.015Z,3.60
2019-03-18T23:01:58.553Z,3.40
2019-03-18T23:04:29.275Z,3.50
2019-03-18T23:06:59.967Z,3.50
2019-03-18T23:09:30.319Z,3.70
2019-03-18T23:12:01.676Z,3.70
2019-03-18T23:14:32.055Z,3.40
2019-03-18T23:17:02.353Z,3.50
2019-03-18T23:19:32.764Z,3.30
2019-03-18T23:22:03.720Z,3.50
2019-03-18T23:24:35.883Z,3.20
2019-03-18T23:27:06.228Z,3.50
2019-03-18T23:29:37.024Z,3.30
2019-03-18T23:32:07.771Z,3.50
2019-03-18T23:34:40.138Z,3.20
2019-03-18T23:37:13.037Z,2.90
2019-03-18T23:39:43.680Z,2.80
2019-03-18T23:42:14.054Z,2.70
2019-03-18T23:44:45.857Z,2.70
2019-03-18T23:47:16.485Z,3.00
2019-03-18T23:49:47.678Z,3.00
2019-03-18T23:52:18.474Z,2.90
2019-03-18T23:54:48.848Z,3.10
2019-03-18T23:57:19.218Z,3.20
2019-03-18T23:59:49.545Z,3.40
